Time;durP1;ratioP1;P1;durP2;ratioP2;P2;SDS_P1;SDS_P2;PMS_P1;PMS_P2;Temp;Humidity;BMP_temperature;BMP_pressure;BME280_temperature;BME280_humidity;BME280_pressure;Samples;Min_cycle;Max_cycle;Signal;HPM_P1;HPM_P2
2023/02/27 00:00:47;;;;;;;2.58;0.98;;;;;;;;;;4985638;28;20056;-76
2023/02/27 00:03:13;;;;;;;1.35;0.95;;;;;;;;;;4959567;28;20493;-76
2023/02/27 00:05:40;;;;;;;1.35;1.08;;;;;;;;;;4983376;28;20037;-76
2023/02/27 00:08:06;;;;;;;1.60;0.80;;;;;;;;;;4982617;28;20049;-76
2023/02/27 00:10:32;;;;;;;1.52;0.95;;;;;;;;;;4984337;28;20027;-76
2023/02/27 00:12:58;;;;;;;2.53;1.20;;;;;;;;;;4988130;28;20038;-76
2023/02/27 00:15:24;;;;;;;1.10;0.98;;;;;;;;;;4989425;28;20030;-76
2023/02/27 00:17:50;;;;;;;2.17;1.10;;;;;;;;;;4986154;28;20597;-76
2023/02/27 00:20:17;;;;;;;1.83;1.08;;;;;;;;;;4984536;28;20045;-77
2023/02/27 00:22:44;;;;;;;1.45;1.05;;;;;;;;;;4986035;28;20053;-77
2023/02/27 00:25:10;;;;;;;4.75;1.25;;;;;;;;;;4983062;28;20437;-77
2023/02/27 00:27:36;;;;;;;1.20;1.10;;;;;;;;;;4979334;28;20380;-76
2023/02/27 00:30:06;;;;;;;2.60;1.17;;;;;;;;;;4983489;28;20038;-76
2023/02/27 00:32:32;;;;;;;1.75;1.00;;;;;;;;;;4984894;28;20031;-76
2023/02/27 00:34:58;;;;;;;1.23;1.00;;;;;;;;;;4982993;28;20043;-76
2023/02/27 00:37:25;;;;;;;1.55;1.00;;;;;;;;;;4984949;28;20031;-76
2023/02/27 00:39:51;;;;;;;1.30;1.10;;;;;;;;;;4987166;28;20093;-76
2023/02/27 00:42:17;;;;;;;2.45;1.23;;;;;;;;;;4987442;28;20433;-77
2023/02/27 00:44:43;;;;;;;2.58;1.42;;;;;;;;;;4981123;28;20038;-76
2023/02/27 00:47:09;;;;;;;3.60;1.40;;;;;;;;;;4983482;28;20026;-75
2023/02/27 00:49:35;;;;;;;1.50;0.93;;;;;;;;;;4987543;28;20030;-76
2023/02/27 00:52:01;;;;;;;1.67;1.00;;;;;;;;;;4972658;28;20065;-76
2023/02/27 00:54:27;;;;;;;1.98;1.35;;;;;;;;;;4979456;28;20034;-76
2023/02/27 00:56:53;;;;;;;1.88;1.00;;;;;;;;;;4985446;28;20140;-76
2023/02/27 00:59:19;;;;;;;2.03;1.08;;;;;;;;;;4988204;28;20098;-76
2023/02/27 01:01:54;;;;;;;1.00;0.85;;;;;;;;;;4990230;28;20521;-76
2023/02/27 01:04:20;;;;;;;1.58;0.90;;;;;;;;;;4979459;28;20042;-76
2023/02/27 01:07:01;;;;;;;1.60;1.00;;;;;;;;;;4990847;28;20043;-77
2023/02/27 01:09:27;;;;;;;1.48;1.15;;;;;;;;;;4989637;28;20058;-76
2023/02/27 01:11:53;;;;;;;2.75;1.30;;;;;;;;;;4988801;28;20397;-76
2023/02/27 01:14:19;;;;;;;1.13;0.93;;;;;;;;;;4985859;28;20019;-77
2023/02/27 01:16:45;;;;;;;3.72;0.88;;;;;;;;;;4987927;28;20026;-76
2023/02/27 01:19:11;;;;;;;1.10;0.70;;;;;;;;;;4983987;28;20652;-76
2023/02/27 01:21:37;;;;;;;1.13;0.90;;;;;;;;;;4988109;28;20038;-76
2023/02/27 01:24:03;;;;;;;1.20;1.00;;;;;;;;;;4996870;28;20502;-76
2023/02/27 01:26:29;;;;;;;0.88;0.82;;;;;;;;;;4987512;28;20030;-76
2023/02/27 01:28:55;;;;;;;1.48;1.13;;;;;;;;;;4986665;28;20474;-76
2023/02/27 01:31:21;;;;;;;1.20;1.00;;;;;;;;;;4987433;28;20034;-76
2023/02/27 01:33:47;;;;;;;0.77;0.75;;;;;;;;;;4989605;28;20026;-76
2023/02/27 01:36:14;;;;;;;2.97;1.40;;;;;;;;;;4990790;28;20073;-76
2023/02/27 01:38:42;;;;;;;1.70;1.05;;;;;;;;;;4984265;28;20114;-76
2023/02/27 01:41:08;;;;;;;1.17;0.98;;;;;;;;;;4987938;28;20029;-77
2023/02/27 01:43:53;;;;;;;2.15;1.10;;;;;;;;;;4980094;28;20553;-76
2023/02/27 01:46:18;;;;;;;1.23;0.80;;;;;;;;;;4980130;28;20058;-76
2023/02/27 01:48:45;;;;;;;1.17;0.93;;;;;;;;;;4981830;28;20022;-75
2023/02/27 01:51:13;;;;;;;1.27;0.90;;;;;;;;;;4991051;28;20022;-76
2023/02/27 01:53:40;;;;;;;1.38;0.90;;;;;;;;;;4988286;28;20027;-76
2023/02/27 01:56:18;;;;;;;1.15;0.88;;;;;;;;;;4987890;28;20076;-76
2023/02/27 01:58:47;;;;;;;0.68;0.68;;;;;;;;;;4984469;28;20037;-76
2023/02/27 02:01:13;;;;;;;0.80;0.80;;;;;;;;;;4988575;28;20045;-76
2023/02/27 02:03:46;;;;;;;0.75;0.75;;;;;;;;;;4987811;28;20405;-77
2023/02/27 02:06:12;;;;;;;1.20;0.93;;;;;;;;;;4985059;28;20070;-76
2023/02/27 02:08:41;;;;;;;0.95;0.93;;;;;;;;;;4989368;28;20038;-77
2023/02/27 02:11:07;;;;;;;1.58;0.70;;;;;;;;;;4984238;28;20370;-76
2023/02/27 02:13:34;;;;;;;0.70;0.70;;;;;;;;;;4990321;28;20049;-77
2023/02/27 02:16:13;;;;;;;1.10;0.93;;;;;;;;;;4991040;28;20224;-76
2023/02/27 02:18:48;;;;;;;1.33;0.95;;;;;;;;;;4984332;28;20672;-76
2023/02/27 02:21:33;;;;;;;0.80;0.77;;;;;;;;;;4983637;28;20030;-76
2023/02/27 02:24:22;;;;;;;2.78;1.00;;;;;;;;;;4980062;28;20037;-76
2023/02/27 02:26:53;;;;;;;1.23;1.00;;;;;;;;;;4984824;28;20085;-76
2023/02/27 02:29:30;;;;;;;0.85;0.82;;;;;;;;;;4988207;28;20037;-76
2023/02/27 02:32:15;;;;;;;1.05;0.77;;;;;;;;;;4989805;28;20027;-76
2023/02/27 02:35:00;;;;;;;0.85;0.68;;;;;;;;;;4984304;28;20532;-75
2023/02/27 02:37:41;;;;;;;1.05;0.95;;;;;;;;;;4985985;28;20110;-75
2023/02/27 02:40:07;;;;;;;0.88;0.75;;;;;;;;;;4988419;28;20051;-76
2023/02/27 02:42:36;;;;;;;1.50;0.88;;;;;;;;;;4984899;28;20030;-75
2023/02/27 02:45:10;;;;;;;0.50;0.50;;;;;;;;;;4988140;28;20157;-75
2023/02/27 02:47:46;;;;;;;0.90;0.55;;;;;;;;;;4983279;28;20037;-76
2023/02/27 02:50:19;;;;;;;0.90;0.82;;;;;;;;;;4987233;28;20044;-76
2023/02/27 02:52:54;;;;;;;0.75;0.68;;;;;;;;;;4986687;28;20594;-75
2023/02/27 02:55:24;;;;;;;1.80;0.95;;;;;;;;;;4982987;28;20401;-76
2023/02/27 02:58:02;;;;;;;1.08;0.98;;;;;;;;;;4988370;28;20360;-76
2023/02/27 03:00:31;;;;;;;1.98;1.20;;;;;;;;;;4981354;28;20034;-77
2023/02/27 03:03:00;;;;;;;1.20;0.82;;;;;;;;;;4987944;28;20027;-77
2023/02/27 03:05:32;;;;;;;0.85;0.70;;;;;;;;;;4986195;28;20030;-77
2023/02/27 03:08:01;;;;;;;2.50;0.90;;;;;;;;;;4982329;28;20116;-77
2023/02/27 03:10:34;;;;;;;0.80;0.68;;;;;;;;;;4981725;28;20022;-77
2023/02/27 03:13:04;;;;;;;6.40;1.20;;;;;;;;;;4986360;28;20014;-76
2023/02/27 03:15:34;;;;;;;1.10;0.75;;;;;;;;;;4986756;28;20033;-76
2023/02/27 03:18:08;;;;;;;1.08;0.98;;;;;;;;;;4983051;28;20027;-76
2023/02/27 03:20:39;;;;;;;1.02;0.80;;;;;;;;;;4985551;28;20392;-76
2023/02/27 03:23:08;;;;;;;1.48;0.77;;;;;;;;;;4970033;28;20038;-77
2023/02/27 03:25:38;;;;;;;0.95;0.60;;;;;;;;;;4986234;28;20265;-76
2023/02/27 03:28:06;;;;;;;0.57;0.57;;;;;;;;;;4988248;28;20454;-77
2023/02/27 03:30:37;;;;;;;2.28;0.80;;;;;;;;;;4985370;28;20473;-77
2023/02/27 03:33:09;;;;;;;0.45;0.43;;;;;;;;;;4984123;28;20038;-76
2023/02/27 03:35:41;;;;;;;1.42;1.00;;;;;;;;;;4988532;28;20537;-77
2023/02/27 03:38:07;;;;;;;;;;;;;;;;;;4988083;28;20042;-76
2023/02/27 03:40:33;;;;;;;1.10;0.80;;;;;;;;;;4984604;28;19995;-76
2023/02/27 03:43:13;;;;;;;1.30;0.70;;;;;;;;;;4985112;28;20014;-77
2023/02/27 03:45:43;;;;;;;0.57;0.55;;;;;;;;;;4987012;28;20034;-77
2023/02/27 03:48:09;;;;;;;0.88;0.75;;;;;;;;;;4990644;28;20553;-76
2023/02/27 03:50:36;;;;;;;1.40;0.90;;;;;;;;;;4987470;28;20138;-77
2023/02/27 03:53:04;;;;;;;0.60;0.60;;;;;;;;;;4986306;28;20018;-77
2023/02/27 03:55:33;;;;;;;0.75;0.75;;;;;;;;;;4985681;28;20038;-77
2023/02/27 03:57:59;;;;;;;0.82;0.80;;;;;;;;;;4986106;28;20030;-77
2023/02/27 04:00:26;;;;;;;1.23;0.55;;;;;;;;;;4984274;28;20022;-76
2023/02/27 04:02:53;;;;;;;0.55;0.55;;;;;;;;;;4986796;28;20037;-76
2023/02/27 04:05:20;;;;;;;0.55;0.52;;;;;;;;;;4984971;28;20026;-76
2023/02/27 04:08:04;;;;;;;1.60;0.98;;;;;;;;;;4987600;28;20056;-76
2023/02/27 04:10:48;;;;;;;1.40;0.80;;;;;;;;;;4982359;28;20037;-76
2023/02/27 04:13:18;;;;;;;0.47;0.47;;;;;;;;;;4985055;28;20134;-76
2023/02/27 04:15:47;;;;;;;0.70;0.60;;;;;;;;;;4981230;28;20042;-76
2023/02/27 04:18:31;;;;;;;1.05;0.60;;;;;;;;;;4986834;28;20092;-77
2023/02/27 04:21:00;;;;;;;0.60;0.60;;;;;;;;;;4975141;28;20134;-77
2023/02/27 04:23:37;;;;;;;0.88;0.60;;;;;;;;;;4985159;28;20038;-77
2023/02/27 04:26:10;;;;;;;1.00;0.77;;;;;;;;;;4986015;28;20027;-77
2023/02/27 04:28:41;;;;;;;0.75;0.60;;;;;;;;;;4990973;28;20065;-77
2023/02/27 04:31:14;;;;;;;0.68;0.68;;;;;;;;;;4991893;28;20030;-76
2023/02/27 04:34:02;;;;;;;1.67;0.80;;;;;;;;;;4988777;28;20421;-76
2023/02/27 04:36:41;;;;;;;0.90;0.70;;;;;;;;;;4993668;28;20026;-77
2023/02/27 04:39:08;;;;;;;0.90;0.70;;;;;;;;;;4989961;28;20057;-78
2023/02/27 04:41:42;;;;;;;0.55;0.55;;;;;;;;;;4993533;28;20578;-77
2023/02/27 04:44:10;;;;;;;0.75;0.68;;;;;;;;;;4996750;28;20076;-77
2023/02/27 04:46:38;;;;;;;0.90;0.80;;;;;;;;;;4992186;28;20044;-76
2023/02/27 04:49:08;;;;;;;0.70;0.70;;;;;;;;;;4991884;28;20030;-77
2023/02/27 04:51:39;;;;;;;1.20;0.65;;;;;;;;;;4992889;28;20089;-76
2023/02/27 04:54:11;;;;;;;0.55;0.50;;;;;;;;;;4991666;28;20026;-76
2023/02/27 04:56:41;;;;;;;5.45;0.85;;;;;;;;;;4985212;28;20440;-77
2023/02/27 04:59:09;;;;;;;0.70;0.60;;;;;;;;;;4986519;28;20068;-77
2023/02/27 05:01:39;;;;;;;0.90;0.80;;;;;;;;;;4988338;28;20125;-77
2023/02/27 05:04:07;;;;;;;0.70;0.50;;;;;;;;;;4994489;28;20089;-78
2023/02/27 05:06:35;;;;;;;0.63;0.52;;;;;;;;;;4989515;28;20050;-77
2023/02/27 05:09:04;;;;;;;0.52;0.50;;;;;;;;;;4989741;28;20540;-77
2023/02/27 05:11:40;;;;;;;0.70;0.52;;;;;;;;;;4987072;28;20489;-76
2023/02/27 05:14:17;;;;;;;1.25;0.63;;;;;;;;;;4979060;28;20125;-76
2023/02/27 05:16:50;;;;;;;0.88;0.73;;;;;;;;;;4993909;28;20149;-75
2023/02/27 05:19:17;;;;;;;0.57;0.57;;;;;;;;;;4984099;28;20030;-76
2023/02/27 05:21:51;;;;;;;0.57;0.57;;;;;;;;;;4991087;28;20121;-76
2023/02/27 05:24:38;;;;;;;1.85;0.90;;;;;;;;;;4991562;28;20041;-77
2023/02/27 05:27:13;;;;;;;1.75;1.10;;;;;;;;;;4989092;28;20027;-77
2023/02/27 05:29:53;;;;;;;1.52;0.82;;;;;;;;;;4985066;28;20386;-77
2023/02/27 05:32:19;;;;;;;1.33;0.60;;;;;;;;;;4987460;28;20026;-76
2023/02/27 05:34:54;;;;;;;0.40;0.40;;;;;;;;;;4992373;28;20018;-76
2023/02/27 05:37:24;;;;;;;0.68;0.60;;;;;;;;;;4989334;28;20109;-73
2023/02/27 05:39:51;;;;;;;1.13;1.05;;;;;;;;;;4979828;28;20035;-72
2023/02/27 05:42:27;;;;;;;0.65;0.57;;;;;;;;;;4980836;28;20085;-72
2023/02/27 05:44:56;;;;;;;0.57;0.57;;;;;;;;;;4991325;28;20038;-72
2023/02/27 05:47:24;;;;;;;2.80;0.80;;;;;;;;;;4992501;28;20027;-72
2023/02/27 05:50:02;;;;;;;0.93;0.80;;;;;;;;;;4986235;28;20034;-72
2023/02/27 05:52:29;;;;;;;1.88;0.80;;;;;;;;;;4986538;28;20054;-73
2023/02/27 05:54:55;;;;;;;2.35;0.73;;;;;;;;;;4980177;28;20046;-72
2023/02/27 05:57:28;;;;;;;1.48;0.70;;;;;;;;;;4982643;28;20028;-72
2023/02/27 05:59:58;;;;;;;1.05;0.80;;;;;;;;;;4987918;28;20121;-72
2023/02/27 06:02:24;;;;;;;1.40;0.50;;;;;;;;;;4982138;28;20122;-72
2023/02/27 06:04:49;;;;;;;0.50;0.50;;;;;;;;;;4985653;28;20117;-73
2023/02/27 06:07:15;;;;;;;0.90;0.70;;;;;;;;;;4984665;28;20071;-72
2023/02/27 06:09:43;;;;;;;1.13;0.77;;;;;;;;;;4983102;28;20117;-72
2023/02/27 06:12:09;;;;;;;0.60;0.60;;;;;;;;;;4983418;28;20105;-72
2023/02/27 06:14:35;;;;;;;0.63;0.55;;;;;;;;;;4986042;28;20096;-72
2023/02/27 06:17:01;;;;;;;0.77;0.73;;;;;;;;;;4988047;28;20038;-72
2023/02/27 06:19:27;;;;;;;0.80;0.60;;;;;;;;;;4984552;28;20137;-72
2023/02/27 06:21:52;;;;;;;1.63;0.90;;;;;;;;;;4979605;28;20097;-72
2023/02/27 06:24:18;;;;;;;1.67;0.73;;;;;;;;;;4988036;28;20038;-72
2023/02/27 06:26:45;;;;;;;0.73;0.73;;;;;;;;;;4986279;28;20034;-72
2023/02/27 06:29:12;;;;;;;2.72;0.80;;;;;;;;;;4990267;28;20383;-72
2023/02/27 06:31:40;;;;;;;2.88;0.85;;;;;;;;;;4986332;28;20485;-72
2023/02/27 06:34:06;;;;;;;1.02;0.57;;;;;;;;;;4980475;28;20240;-72
2023/02/27 06:36:32;;;;;;;1.27;0.60;;;;;;;;;;4988693;28;20030;-72
2023/02/27 06:38:58;;;;;;;1.17;0.93;;;;;;;;;;4988138;28;20054;-72
2023/02/27 06:41:24;;;;;;;1.92;0.68;;;;;;;;;;4988246;28;20042;-72
2023/02/27 06:43:50;;;;;;;0.95;0.68;;;;;;;;;;4984800;28;20033;-72
2023/02/27 06:46:16;;;;;;;1.33;0.90;;;;;;;;;;4985377;28;20389;-72
2023/02/27 06:48:42;;;;;;;1.80;0.80;;;;;;;;;;4986012;28;20090;-72
2023/02/27 06:51:08;;;;;;;2.65;1.40;;;;;;;;;;4987118;28;20026;-72
2023/02/27 06:53:34;;;;;;;2.95;0.60;;;;;;;;;;4986364;28;20605;-72
2023/02/27 06:56:03;;;;;;;1.45;0.88;;;;;;;;;;4980445;28;20034;-71
2023/02/27 06:58:29;;;;;;;3.65;1.77;;;;;;;;;;4985497;28;20388;-72
2023/02/27 07:00:58;;;;;;;2.28;1.17;;;;;;;;;;4986037;28;20042;-72
2023/02/27 07:03:24;;;;;;;2.65;1.10;;;;;;;;;;4983195;28;20231;-72
2023/02/27 07:06:01;;;;;;;1.17;0.77;;;;;;;;;;4972157;28;20042;-71
2023/02/27 07:08:27;;;;;;;4.28;1.20;;;;;;;;;;4984888;28;20030;-71
2023/02/27 07:10:53;;;;;;;1.45;0.90;;;;;;;;;;4989059;28;20038;-72
2023/02/27 07:13:22;;;;;;;1.83;1.02;;;;;;;;;;4988844;28;20036;-72
2023/02/27 07:15:48;;;;;;;3.20;1.55;;;;;;;;;;4979737;28;20077;-72
2023/02/27 07:18:14;;;;;;;3.38;1.33;;;;;;;;;;4986582;28;20034;-71
2023/02/27 07:20:43;;;;;;;2.70;1.45;;;;;;;;;;4990705;28;20738;-71
2023/02/27 07:23:12;;;;;;;2.47;1.02;;;;;;;;;;4986916;28;20172;-79
2023/02/27 07:25:38;;;;;;;2.15;1.35;;;;;;;;;;4991277;28;20599;-78
2023/02/27 07:28:04;;;;;;;1.52;1.05;;;;;;;;;;4986724;28;20384;-77
2023/02/27 07:30:30;;;;;;;6.47;1.08;;;;;;;;;;4988235;28;20128;-78
2023/02/27 07:32:56;;;;;;;3.00;1.30;;;;;;;;;;4985828;28;20022;-78
2023/02/27 07:35:22;;;;;;;9.43;1.50;;;;;;;;;;4990675;28;20057;-78
2023/02/27 07:37:48;;;;;;;9.93;1.90;;;;;;;;;;4984561;28;20030;-78
2023/02/27 07:40:14;;;;;;;5.10;1.35;;;;;;;;;;4988385;28;20586;-77
2023/02/27 07:42:40;;;;;;;11.70;1.83;;;;;;;;;;4983288;28;20155;-77
2023/02/27 07:45:06;;;;;;;4.53;1.63;;;;;;;;;;4984118;28;20034;-77
2023/02/27 07:47:32;;;;;;;6.85;1.65;;;;;;;;;;4980717;28;20027;-77
2023/02/27 07:49:58;;;;;;;2.40;1.23;;;;;;;;;;4983353;28;20500;-77
2023/02/27 07:52:24;;;;;;;4.85;0.90;;;;;;;;;;4984371;28;20466;-77
2023/02/27 07:54:53;;;;;;;2.08;1.40;;;;;;;;;;4989443;28;20033;-77
2023/02/27 07:57:19;;;;;;;1.40;1.00;;;;;;;;;;4988680;28;20023;-76
2023/02/27 07:59:45;;;;;;;0.90;0.85;;;;;;;;;;4984108;28;20022;-76
2023/02/27 08:02:11;;;;;;;1.58;1.00;;;;;;;;;;4984237;28;20041;-77
2023/02/27 08:04:37;;;;;;;1.88;0.88;;;;;;;;;;4985702;28;20038;-75
2023/02/27 08:07:04;;;;;;;1.27;1.15;;;;;;;;;;4982338;28;20061;-75
2023/02/27 08:09:30;;;;;;;1.52;0.82;;;;;;;;;;4979840;28;20054;-75
2023/02/27 08:11:57;;;;;;;1.05;0.98;;;;;;;;;;4985214;28;20121;-74
2023/02/27 08:14:23;;;;;;;2.50;1.05;;;;;;;;;;4989685;28;20737;-74
2023/02/27 08:16:49;;;;;;;0.75;0.68;;;;;;;;;;4982344;28;20046;-75
2023/02/27 08:19:18;;;;;;;1.73;0.90;;;;;;;;;;4994810;28;20045;-75
2023/02/27 08:21:44;;;;;;;1.33;0.90;;;;;;;;;;4985602;28;20030;-75
2023/02/27 08:24:10;;;;;;;4.47;1.20;;;;;;;;;;4995454;28;20066;-74
2023/02/27 08:26:36;;;;;;;2.60;0.90;;;;;;;;;;4986201;28;20501;-77
2023/02/27 08:29:02;;;;;;;3.08;1.00;;;;;;;;;;4983833;28;20125;-74
2023/02/27 08:31:28;;;;;;;2.50;1.30;;;;;;;;;;4989859;28;20121;-79
2023/02/27 08:33:54;;;;;;;1.50;0.90;;;;;;;;;;4973895;28;20109;-76
2023/02/27 08:36:20;;;;;;;2.28;0.98;;;;;;;;;;4990562;28;20030;-79
2023/02/27 08:38:46;;;;;;;2.30;1.20;;;;;;;;;;4991452;28;20063;-78
2023/02/27 08:41:12;;;;;;;2.05;1.05;;;;;;;;;;4984523;28;20034;-78
2023/02/27 08:43:37;;;;;;;1.50;1.10;;;;;;;;;;4976283;28;20053;-78
2023/02/27 08:46:04;;;;;;;2.08;1.00;;;;;;;;;;4983148;28;20062;-78
2023/02/27 08:48:32;;;;;;;2.67;1.08;;;;;;;;;;4987676;28;20019;-78
2023/02/27 08:50:58;;;;;;;6.93;0.70;;;;;;;;;;4984732;28;20389;-77
2023/02/27 08:53:31;;;;;;;2.22;1.10;;;;;;;;;;4988683;28;20027;-79
2023/02/27 08:55:57;;;;;;;1.65;1.17;;;;;;;;;;4982614;28;20026;-78
2023/02/27 08:58:23;;;;;;;0.80;0.80;;;;;;;;;;4990057;28;20580;-77
2023/02/27 09:00:49;;;;;;;1.55;0.95;;;;;;;;;;4983925;28;20597;-77
2023/02/27 09:03:15;;;;;;;1.88;1.35;;;;;;;;;;4984787;28;20404;-77
2023/02/27 09:05:41;;;;;;;2.42;1.15;;;;;;;;;;4989930;28;20045;-78
2023/02/27 09:08:07;;;;;;;1.27;0.90;;;;;;;;;;4984126;28;20030;-78
2023/02/27 09:10:33;;;;;;;1.35;0.90;;;;;;;;;;4987549;28;20113;-78
2023/02/27 09:13:00;;;;;;;1.30;0.80;;;;;;;;;;4985212;28;20029;-78
2023/02/27 09:15:27;;;;;;;5.55;1.23;;;;;;;;;;4987581;28;20274;-76
2023/02/27 09:17:55;;;;;;;4.95;2.22;;;;;;;;;;4989841;28;20129;-76
2023/02/27 09:20:21;;;;;;;4.93;1.20;;;;;;;;;;4985890;28;20113;-80
2023/02/27 09:22:47;;;;;;;10.80;1.10;;;;;;;;;;4990771;28;20489;-78
2023/02/27 09:25:13;;;;;;;2.40;1.02;;;;;;;;;;4993555;28;20034;-80
2023/02/27 09:27:39;;;;;;;1.10;1.00;;;;;;;;;;4991525;28;20041;-80
2023/02/27 09:30:05;;;;;;;6.35;1.15;;;;;;;;;;4989933;28;20438;-78
2023/02/27 09:32:31;;;;;;;2.22;1.15;;;;;;;;;;4990548;28;20069;-79
2023/02/27 09:34:57;;;;;;;7.78;1.25;;;;;;;;;;4987818;28;20022;-79
2023/02/27 09:37:23;;;;;;;1.75;1.27;;;;;;;;;;4994085;28;20096;-84
2023/02/27 09:39:50;;;;;;;2.03;1.00;;;;;;;;;;4987574;28;20026;-82
2023/02/27 09:42:27;;;;;;;1.70;0.90;;;;;;;;;;4987466;28;20042;-83
2023/02/27 09:44:58;;;;;;;3.38;1.83;;;;;;;;;;4986765;28;20038;-82
2023/02/27 09:47:35;;;;;;;1.40;1.15;;;;;;;;;;4989118;28;20030;-77
2023/02/27 09:50:04;;;;;;;1.33;0.80;;;;;;;;;;4973554;28;20026;-77
2023/02/27 09:52:31;;;;;;;2.40;1.13;;;;;;;;;;4983750;28;20105;-76
2023/02/27 09:54:57;;;;;;;3.45;1.00;;;;;;;;;;4984163;28;20042;-78
2023/02/27 09:57:39;;;;;;;2.08;1.10;;;;;;;;;;4983854;28;20436;-74
2023/02/27 10:00:26;;;;;;;1.27;0.70;;;;;;;;;;4993666;28;20042;-76
2023/02/27 10:03:02;;;;;;;1.08;0.70;;;;;;;;;;4986334;28;20038;-74
2023/02/27 10:05:47;;;;;;;2.15;1.00;;;;;;;;;;4983652;28;20037;-74
2023/02/27 10:08:24;;;;;;;1.77;1.15;;;;;;;;;;4981127;28;20042;-75
2023/02/27 10:10:59;;;;;;;2.25;1.17;;;;;;;;;;4987872;28;20046;-76
2023/02/27 10:13:37;;;;;;;1.23;1.10;;;;;;;;;;4996232;28;20393;-75
2023/02/27 10:16:12;;;;;;;5.57;1.02;;;;;;;;;;4991635;28;20585;-75
2023/02/27 10:18:47;;;;;;;5.78;0.95;;;;;;;;;;4987769;28;20473;-75
2023/02/27 10:21:16;;;;;;;3.25;1.15;;;;;;;;;;4989726;28;20084;-75
2023/02/27 10:23:45;;;;;;;4.88;1.17;;;;;;;;;;4989791;28;20023;-75
2023/02/27 10:26:18;;;;;;;2.30;1.00;;;;;;;;;;4985534;28;20149;-75
2023/02/27 10:28:44;;;;;;;3.67;2.00;;;;;;;;;;4985304;28;20038;-75
2023/02/27 10:31:19;;;;;;;1.08;0.90;;;;;;;;;;4988633;28;20620;-74
2023/02/27 10:33:47;;;;;;;2.85;1.10;;;;;;;;;;4989423;28;20362;-75
2023/02/27 10:36:13;;;;;;;1.95;1.35;;;;;;;;;;4986726;28;20034;-75
2023/02/27 10:38:39;;;;;;;2.63;1.20;;;;;;;;;;4987686;28;20034;-80
2023/02/27 10:41:06;;;;;;;0.77;0.77;;;;;;;;;;4982204;28;20092;-80
2023/02/27 10:43:32;;;;;;;2.22;1.02;;;;;;;;;;4986723;28;20053;-78
2023/02/27 10:46:02;;;;;;;1.23;1.00;;;;;;;;;;4987717;28;20030;-77
2023/02/27 10:48:28;;;;;;;1.55;1.10;;;;;;;;;;4987791;28;20109;-80
2023/02/27 10:51:14;;;;;;;1.92;1.00;;;;;;;;;;4981511;28;20112;-77
2023/02/27 10:53:40;;;;;;;2.10;1.02;;;;;;;;;;4982408;28;20030;-77
2023/02/27 10:56:09;;;;;;;4.07;1.98;;;;;;;;;;4982263;28;20401;-76
2023/02/27 10:58:36;;;;;;;4.15;1.88;;;;;;;;;;4987055;28;20030;-77
2023/02/27 11:01:04;;;;;;;2.03;1.48;;;;;;;;;;4981887;28;20038;-76
2023/02/27 11:03:33;;;;;;;5.65;2.22;;;;;;;;;;4986556;28;20049;-76
2023/02/27 11:06:06;;;;;;;4.25;1.80;;;;;;;;;;4986833;28;20051;-76
2023/02/27 11:08:33;;;;;;;4.93;2.10;;;;;;;;;;4984622;28;20033;-77
2023/02/27 11:11:03;;;;;;;2.85;1.60;;;;;;;;;;4984663;28;20105;-77
2023/02/27 11:13:31;;;;;;;2.63;1.70;;;;;;;;;;4985591;28;20564;-76
2023/02/27 11:16:06;;;;;;;4.90;1.35;;;;;;;;;;4986523;28;20030;-76
2023/02/27 11:18:34;;;;;;;2.70;1.35;;;;;;;;;;4986832;28;20508;-77
2023/02/27 11:21:12;;;;;;;2.65;1.65;;;;;;;;;;4985598;28;20062;-76
2023/02/27 11:23:48;;;;;;;3.67;1.77;;;;;;;;;;4978797;28;21438;-76
2023/02/27 11:26:20;;;;;;;2.72;1.70;;;;;;;;;;4984513;28;20473;-76
2023/02/27 11:29:02;;;;;;;4.57;1.77;;;;;;;;;;4985296;28;20026;-76
2023/02/27 11:31:29;;;;;;;;;;;;;;;;;;4985813;28;20038;-76
2023/02/27 11:33:55;;;;;;;3.67;1.25;;;;;;;;;;4985319;28;20008;-77
2023/02/27 11:36:22;;;;;;;2.58;1.48;;;;;;;;;;4986355;28;20121;-76
2023/02/27 11:38:56;;;;;;;1.67;1.33;;;;;;;;;;4983426;28;20041;-77
2023/02/27 11:41:36;;;;;;;1.65;1.10;;;;;;;;;;4986426;28;20416;-76
2023/02/27 11:44:04;;;;;;;3.17;1.13;;;;;;;;;;4984900;28;20042;-76
2023/02/27 11:46:30;;;;;;;2.05;1.48;;;;;;;;;;4985927;28;20038;-76
2023/02/27 11:49:07;;;;;;;2.70;1.60;;;;;;;;;;4985129;28;20042;-76
2023/02/27 11:51:52;;;;;;;1.58;1.13;;;;;;;;;;4986844;28;20030;-76
2023/02/27 11:54:31;;;;;;;3.67;1.23;;;;;;;;;;4982109;28;20509;-76
2023/02/27 11:56:59;;;;;;;2.03;1.20;;;;;;;;;;4985112;28;20038;-76
2023/02/27 11:59:39;;;;;;;2.60;1.45;;;;;;;;;;4983552;28;20042;-76
2023/02/27 12:02:06;;;;;;;1.27;0.85;;;;;;;;;;4984495;28;20022;-76
2023/02/27 12:04:38;;;;;;;1.83;1.20;;;;;;;;;;4986401;28;20034;-76
2023/02/27 12:07:10;;;;;;;4.20;1.20;;;;;;;;;;4986493;28;20042;-76
2023/02/27 12:09:50;;;;;;;1.67;1.27;;;;;;;;;;4984978;28;20034;-77
2023/02/27 12:12:36;;;;;;;4.05;1.48;;;;;;;;;;4984134;28;20026;-76
2023/02/27 12:15:20;;;;;;;2.28;1.40;;;;;;;;;;4983921;28;20096;-76
2023/02/27 12:17:56;;;;;;;5.32;1.50;;;;;;;;;;4982941;28;20548;-76
2023/02/27 12:20:34;;;;;;;3.55;1.20;;;;;;;;;;4986191;28;20038;-76
2023/02/27 12:23:17;;;;;;;1.65;1.13;;;;;;;;;;4984435;28;20113;-76
2023/02/27 12:25:45;;;;;;;1.77;1.13;;;;;;;;;;4985426;28;20058;-77
2023/02/27 12:28:27;;;;;;;2.03;1.02;;;;;;;;;;4983603;28;20019;-76
2023/02/27 12:31:02;;;;;;;3.83;1.30;;;;;;;;;;4983924;28;20105;-77
2023/02/27 12:33:43;;;;;;;2.63;1.00;;;;;;;;;;4983220;28;20465;-76
2023/02/27 12:36:11;;;;;;;2.08;1.20;;;;;;;;;;4985663;28;20022;-76
2023/02/27 12:38:37;;;;;;;2.05;1.00;;;;;;;;;;4986074;28;20043;-76
2023/02/27 12:41:09;;;;;;;2.10;1.10;;;;;;;;;;4984611;28;20106;-77
2023/02/27 12:43:49;;;;;;;1.23;0.80;;;;;;;;;;4985311;28;20695;-76
2023/02/27 12:46:15;;;;;;;2.15;1.13;;;;;;;;;;4981102;28;20159;-76
2023/02/27 12:48:59;;;;;;;1.40;1.08;;;;;;;;;;4987110;28;20023;-76
2023/02/27 12:51:31;;;;;;;1.27;0.90;;;;;;;;;;4989774;28;20026;-76
2023/02/27 12:53:57;;;;;;;;;;;;;;;;;;4987855;28;20031;-76
2023/02/27 12:56:24;;;;;;;1.80;1.10;;;;;;;;;;4981789;28;19953;-76
2023/02/27 12:58:58;;;;;;;2.15;1.05;;;;;;;;;;4988272;28;20053;-76
2023/02/27 13:01:33;;;;;;;1.13;0.80;;;;;;;;;;4986522;28;20031;-76
2023/02/27 13:04:17;;;;;;;1.40;1.02;;;;;;;;;;4986669;28;20026;-76
2023/02/27 13:06:48;;;;;;;1.83;1.10;;;;;;;;;;4987626;28;20042;-76
2023/02/27 13:09:35;;;;;;;2.25;1.60;;;;;;;;;;4988282;28;20022;-76
2023/02/27 13:12:04;;;;;;;1.27;1.10;;;;;;;;;;4986282;28;20034;-76
2023/02/27 13:14:40;;;;;;;1.63;1.10;;;;;;;;;;4988721;28;20020;-76
2023/02/27 13:17:30;;;;;;;1.42;0.90;;;;;;;;;;4988798;28;20058;-76
2023/02/27 13:20:04;;;;;;;1.15;0.63;;;;;;;;;;4986124;28;20042;-77
2023/02/27 13:22:43;;;;;;;1.50;1.00;;;;;;;;;;4985285;28;20038;-76
2023/02/27 13:25:16;;;;;;;3.00;1.10;;;;;;;;;;4990022;28;20034;-75
2023/02/27 13:27:48;;;;;;;1.00;0.90;;;;;;;;;;4987495;28;20034;-76
2023/02/27 13:30:14;;;;;;;1.42;0.85;;;;;;;;;;4981130;28;20433;-76
2023/02/27 13:32:43;;;;;;;1.05;0.90;;;;;;;;;;4989853;28;20022;-76
2023/02/27 13:35:22;;;;;;;6.72;1.00;;;;;;;;;;4990496;28;20385;-76
2023/02/27 13:37:57;;;;;;;1.40;1.10;;;;;;;;;;4991086;28;20038;-76
2023/02/27 13:40:40;;;;;;;1.50;0.65;;;;;;;;;;4990096;28;20421;-76
2023/02/27 13:43:24;;;;;;;4.53;1.00;;;;;;;;;;4989109;28;20026;-76
2023/02/27 13:45:55;;;;;;;0.98;0.85;;;;;;;;;;4985939;28;20072;-76
2023/02/27 13:48:33;;;;;;;2.60;1.10;;;;;;;;;;4985352;28;20089;-76
2023/02/27 13:51:00;;;;;;;1.42;0.90;;;;;;;;;;4990604;28;20037;-76
2023/02/27 13:53:27;;;;;;;8.98;1.17;;;;;;;;;;4990525;28;20050;-76
2023/02/27 13:55:59;;;;;;;0.68;0.68;;;;;;;;;;4985594;28;20477;-76
2023/02/27 13:58:25;;;;;;;1.40;0.85;;;;;;;;;;4987581;28;20117;-76
2023/02/27 14:00:56;;;;;;;2.75;0.70;;;;;;;;;;4989773;28;20386;-76
2023/02/27 14:03:27;;;;;;;2.13;0.90;;;;;;;;;;4989977;28;20022;-76
2023/02/27 14:05:55;;;;;;;3.07;0.90;;;;;;;;;;4990233;28;20038;-76
2023/02/27 14:08:25;;;;;;;1.40;0.70;;;;;;;;;;4985750;28;20134;-76
2023/02/27 14:11:02;;;;;;;3.47;0.70;;;;;;;;;;4985748;28;20198;-76
2023/02/27 14:13:48;;;;;;;1.98;1.30;;;;;;;;;;4986602;28;20113;-75
2023/02/27 14:16:47;;;;;;;1.20;0.60;;;;;;;;;;4986995;28;20117;-76
2023/02/27 14:19:18;;;;;;;1.27;0.80;;;;;;;;;;4943592;28;20299;-76
2023/02/27 14:21:50;;;;;;;2.30;0.90;;;;;;;;;;4990283;28;20037;-76
2023/02/27 14:24:17;;;;;;;3.97;0.80;;;;;;;;;;4987663;28;20092;-76
2023/02/27 14:26:45;;;;;;;1.55;0.70;;;;;;;;;;4988466;28;20073;-76
2023/02/27 14:29:17;;;;;;;0.77;0.68;;;;;;;;;;4986839;28;20077;-76
2023/02/27 14:31:44;;;;;;;2.58;0.70;;;;;;;;;;4980772;28;20474;-76
2023/02/27 14:34:13;;;;;;;2.00;0.70;;;;;;;;;;4984663;28;20594;-76
2023/02/27 14:36:45;;;;;;;0.50;0.50;;;;;;;;;;4988073;28;20023;-76
2023/02/27 14:39:22;;;;;;;0.95;0.57;;;;;;;;;;4987532;28;20480;-76
2023/02/27 14:41:56;;;;;;;0.70;0.70;;;;;;;;;;4989765;28;20034;-76
2023/02/27 14:44:26;;;;;;;0.98;0.93;;;;;;;;;;4988050;28;20112;-76
2023/02/27 14:46:53;;;;;;;0.65;0.57;;;;;;;;;;4989775;28;20041;-76
2023/02/27 14:49:21;;;;;;;0.35;0.35;;;;;;;;;;4986885;28;20026;-76
2023/02/27 14:51:50;;;;;;;1.05;0.68;;;;;;;;;;4987712;28;20031;-75
2023/02/27 14:54:17;;;;;;;1.00;0.68;;;;;;;;;;4982401;28;20106;-75
2023/02/27 14:56:56;;;;;;;1.02;0.70;;;;;;;;;;4985368;28;20112;-79
2023/02/27 14:59:32;;;;;;;1.40;0.88;;;;;;;;;;4982173;28;20504;-75
2023/02/27 15:02:00;;;;;;;1.10;0.70;;;;;;;;;;4986899;28;20502;-78